sensor_id;sensor_type;location;lat;lon;timestamp;pressure;altitude;pressure_sealevel;temperature;humidity
62725;BME280;49026;52.600;4.694;2023-01-24T00:00:48;104019.69;;;2.83;84.15
62725;BME280;49026;52.600;4.694;2023-01-24T00:03:13;104020.50;;;2.82;83.85
62725;BME280;49026;52.600;4.694;2023-01-24T00:05:42;104022.28;;;2.83;84.26
62725;BME280;49026;52.600;4.694;2023-01-24T00:08:12;104020.50;;;2.82;83.88
62725;BME280;49026;52.600;4.694;2023-01-24T00:10:38;104015.28;;;2.82;84.08
62725;BME280;49026;52.600;4.694;2023-01-24T00:13:04;104000.41;;;2.78;83.22
62725;BME280;49026;52.600;4.694;2023-01-24T00:15:30;103997.81;;;2.78;83.63
62725;BME280;49026;52.600;4.694;2023-01-24T00:17:55;104006.44;;;2.77;83.90
62725;BME280;49026;52.600;4.694;2023-01-24T00:20:23;104004.72;;;2.77;83.73
62725;BME280;49026;52.600;4.694;2023-01-24T00:22:48;103995.22;;;2.78;84.11
62725;BME280;49026;52.600;4.694;2023-01-24T00:25:13;103993.38;;;2.75;83.70
62725;BME280;49026;52.600;4.694;2023-01-24T00:27:39;103980.31;;;2.74;83.53
62725;BME280;49026;52.600;4.694;2023-01-24T00:30:04;103988.19;;;2.75;83.29
62725;BME280;49026;52.600;4.694;2023-01-24T00:32:32;103977.72;;;2.74;83.00
62725;BME280;49026;52.600;4.694;2023-01-24T00:34:58;103982.91;;;2.74;83.41
62725;BME280;49026;52.600;4.694;2023-01-24T00:37:24;103988.25;;;2.77;84.10
62725;BME280;49026;52.600;4.694;2023-01-24T00:39:49;103987.56;;;2.81;84.66
62725;BME280;49026;52.600;4.694;2023-01-24T00:42:14;103991.81;;;2.79;83.63
62725;BME280;49026;52.600;4.694;2023-01-24T00:44:40;103987.50;;;2.80;84.13
62725;BME280;49026;52.600;4.694;2023-01-24T00:47:05;103987.72;;;2.84;85.12
62725;BME280;49026;52.600;4.694;2023-01-24T00:49:30;103985.22;;;2.87;85.47
62725;BME280;49026;52.600;4.694;2023-01-24T00:51:58;103985.28;;;2.89;85.11
62725;BME280;49026;52.600;4.694;2023-01-24T00:54:23;103979.19;;;2.88;85.48
62725;BME280;49026;52.600;4.694;2023-01-24T00:56:48;103982.63;;;2.87;85.29
62725;BME280;49026;52.600;4.694;2023-01-24T00:59:14;103979.91;;;2.84;85.84
62725;BME280;49026;52.600;4.694;2023-01-24T01:01:39;103977.31;;;2.84;85.51
62725;BME280;49026;52.600;4.694;2023-01-24T01:04:05;103980.72;;;2.83;85.72
62725;BME280;49026;52.600;4.694;2023-01-24T01:06:30;103979.84;;;2.83;85.95
62725;BME280;49026;52.600;4.694;2023-01-24T01:08:58;103985.91;;;2.83;86.44
62725;BME280;49026;52.600;4.694;2023-01-24T01:11:23;103984.19;;;2.84;86.60
62725;BME280;49026;52.600;4.694;2023-01-24T01:13:54;103986.78;;;2.84;86.90
62725;BME280;49026;52.600;4.694;2023-01-24T01:16:19;103984.34;;;2.87;86.26
62725;BME280;49026;52.600;4.694;2023-01-24T01:18:49;103986.19;;;2.89;86.73
62725;BME280;49026;52.600;4.694;2023-01-24T01:21:17;103990.38;;;2.86;85.03
62725;BME280;49026;52.600;4.694;2023-01-24T01:23:45;103981.53;;;2.82;84.95
62725;BME280;49026;52.600;4.694;2023-01-24T01:26:16;103980.66;;;2.82;84.64
62725;BME280;49026;52.600;4.694;2023-01-24T01:28:42;103983.91;;;2.76;84.22
62725;BME280;49026;52.600;4.694;2023-01-24T01:31:08;103988.09;;;2.74;84.66
62725;BME280;49026;52.600;4.694;2023-01-24T01:33:33;103990.53;;;2.69;83.66
62725;BME280;49026;52.600;4.694;2023-01-24T01:35:59;103984.44;;;2.69;84.26
62725;BME280;49026;52.600;4.694;2023-01-24T01:38:24;103986.28;;;2.71;83.54
62725;BME280;49026;52.600;4.694;2023-01-24T01:40:52;103991.53;;;2.73;85.02
62725;BME280;49026;52.600;4.694;2023-01-24T01:43:21;103982.09;;;2.75;85.50
62725;BME280;49026;52.600;4.694;2023-01-24T01:45:52;103985.66;;;2.77;84.95
62725;BME280;49026;52.600;4.694;2023-01-24T01:48:33;103978.69;;;2.76;85.10
62725;BME280;49026;52.600;4.694;2023-01-24T01:51:17;103981.16;;;2.73;84.65
62725;BME280;49026;52.600;4.694;2023-01-24T01:53:55;103983.34;;;2.64;83.08
62725;BME280;49026;52.600;4.694;2023-01-24T01:56:29;103982.66;;;2.68;84.15
62725;BME280;49026;52.600;4.694;2023-01-24T01:58:58;103976.63;;;2.69;84.25
62725;BME280;49026;52.600;4.694;2023-01-24T02:01:27;103979.22;;;2.69;84.03
62725;BME280;49026;52.600;4.694;2023-01-24T02:04:02;103974.69;;;2.63;83.25
62725;BME280;49026;52.600;4.694;2023-01-24T02:06:37;103978.09;;;2.62;83.45
62725;BME280;49026;52.600;4.694;2023-01-24T02:09:07;103980.75;;;2.64;83.25
62725;BME280;49026;52.600;4.694;2023-01-24T02:11:34;103982.47;;;2.63;83.86
62725;BME280;49026;52.600;4.694;2023-01-24T02:14:10;103968.69;;;2.64;83.30
62725;BME280;49026;52.600;4.694;2023-01-24T02:16:58;103972.16;;;2.65;83.17
62725;BME280;49026;52.600;4.694;2023-01-24T02:22:20;103978.44;;;2.70;83.79
62725;BME280;49026;52.600;4.694;2023-01-24T02:24:59;103978.50;;;2.71;84.17
62725;BME280;49026;52.600;4.694;2023-01-24T02:27:26;103980.31;;;2.74;84.45
62725;BME280;49026;52.600;4.694;2023-01-24T02:29:53;103968.31;;;2.76;84.85
62725;BME280;49026;52.600;4.694;2023-01-24T02:32:19;103971.72;;;2.75;84.36
62725;BME280;49026;52.600;4.694;2023-01-24T02:34:45;103966.38;;;2.72;84.60
62725;BME280;49026;52.600;4.694;2023-01-24T02:37:13;103964.72;;;2.74;84.70
62725;BME280;49026;52.600;4.694;2023-01-24T02:39:43;103969.94;;;2.74;84.24
62725;BME280;49026;52.600;4.694;2023-01-24T02:42:24;103959.53;;;2.74;84.82
62725;BME280;49026;52.600;4.694;2023-01-24T02:47:34;103964.69;;;2.72;84.74
62725;BME280;49026;52.600;4.694;2023-01-24T02:50:03;103961.84;;;2.66;84.15
62725;BME280;49026;52.600;4.694;2023-01-24T02:52:28;103958.34;;;2.66;84.69
62725;BME280;49026;52.600;4.694;2023-01-24T02:55:13;103966.00;;;2.63;83.55
62725;BME280;49026;52.600;4.694;2023-01-24T02:57:39;103956.28;;;2.58;81.77
62725;BME280;49026;52.600;4.694;2023-01-24T03:00:26;103965.03;;;2.60;82.25
62725;BME280;49026;52.600;4.694;2023-01-24T03:02:51;103969.47;;;2.63;83.76
62725;BME280;49026;52.600;4.694;2023-01-24T03:05:16;103967.75;;;2.64;83.52
62725;BME280;49026;52.600;4.694;2023-01-24T03:07:42;103968.75;;;2.66;84.03
62725;BME280;49026;52.600;4.694;2023-01-24T03:10:15;103970.50;;;2.67;84.84
62725;BME280;49026;52.600;4.694;2023-01-24T03:12:41;103968.75;;;2.66;84.88
62725;BME280;49026;52.600;4.694;2023-01-24T03:15:25;103963.47;;;2.64;84.08
62725;BME280;49026;52.600;4.694;2023-01-24T03:18:09;103968.69;;;2.64;84.28
62725;BME280;49026;52.600;4.694;2023-01-24T03:20:54;103964.34;;;2.65;84.23
62725;BME280;49026;52.600;4.694;2023-01-24T03:23:38;103960.88;;;2.64;85.41
62725;BME280;49026;52.600;4.694;2023-01-24T03:26:22;103957.50;;;2.67;85.05
62725;BME280;49026;52.600;4.694;2023-01-24T03:29:06;103961.84;;;2.66;85.09
62725;BME280;49026;52.600;4.694;2023-01-24T03:31:50;103952.19;;;2.64;83.43
62725;BME280;49026;52.600;4.694;2023-01-24T03:34:34;103953.16;;;2.66;84.20
62725;BME280;49026;52.600;4.694;2023-01-24T03:37:11;103952.31;;;2.67;85.12
62725;BME280;49026;52.600;4.694;2023-01-24T03:39:37;103953.16;;;2.66;84.17
62725;BME280;49026;52.600;4.694;2023-01-24T03:42:21;103954.63;;;2.59;82.08
62725;BME280;49026;52.600;4.694;2023-01-24T03:44:46;103950.44;;;2.63;83.19
62725;BME280;49026;52.600;4.694;2023-01-24T03:47:11;103959.16;;;2.65;83.82
62725;BME280;49026;52.600;4.694;2023-01-24T03:49:39;103951.31;;;2.63;84.11
62725;BME280;49026;52.600;4.694;2023-01-24T03:52:23;103953.97;;;2.65;84.99
62725;BME280;49026;52.600;4.694;2023-01-24T03:54:58;103948.66;;;2.62;83.60
62725;BME280;49026;52.600;4.694;2023-01-24T03:57:24;103960.69;;;2.59;84.38
62725;BME280;49026;52.600;4.694;2023-01-24T03:59:49;103956.28;;;2.58;83.95
62725;BME280;49026;52.600;4.694;2023-01-24T04:02:16;103960.53;;;2.56;84.34
62725;BME280;49026;52.600;4.694;2023-01-24T04:04:41;103950.78;;;2.51;82.26
62725;BME280;49026;52.600;4.694;2023-01-24T04:07:26;103963.84;;;2.52;81.26
62725;BME280;49026;52.600;4.694;2023-01-24T04:09:52;103962.94;;;2.52;81.60
62725;BME280;49026;52.600;4.694;2023-01-24T04:12:19;103960.28;;;2.50;81.62
62725;BME280;49026;52.600;4.694;2023-01-24T04:14:45;103955.00;;;2.49;81.74
62725;BME280;49026;52.600;4.694;2023-01-24T04:17:13;103963.69;;;2.49;82.21
62725;BME280;49026;52.600;4.694;2023-01-24T04:19:38;103965.47;;;2.50;82.97
62725;BME280;49026;52.600;4.694;2023-01-24T04:22:03;103963.69;;;2.49;82.50
62725;BME280;49026;52.600;4.694;2023-01-24T04:24:31;103961.91;;;2.48;82.40
62725;BME280;49026;52.600;4.694;2023-01-24T04:26:58;103962.00;;;2.50;83.17
62725;BME280;49026;52.600;4.694;2023-01-24T04:29:26;103968.91;;;2.49;81.83
62725;BME280;49026;52.600;4.694;2023-01-24T04:31:51;103965.47;;;2.50;83.26
62725;BME280;49026;52.600;4.694;2023-01-24T04:34:17;103964.72;;;2.53;83.58
62725;BME280;49026;52.600;4.694;2023-01-24T04:36:44;103972.38;;;2.50;81.15
62725;BME280;49026;52.600;4.694;2023-01-24T04:39:12;103967.09;;;2.48;81.70
62725;BME280;49026;52.600;4.694;2023-01-24T04:41:40;103968.13;;;2.52;82.75
62725;BME280;49026;52.600;4.694;2023-01-24T04:44:07;103971.66;;;2.54;83.14
62725;BME280;49026;52.600;4.694;2023-01-24T04:46:33;103973.09;;;2.47;80.77
62725;BME280;49026;52.600;4.694;2023-01-24T04:49:00;103970.66;;;2.50;82.00
62725;BME280;49026;52.600;4.694;2023-01-24T04:51:28;103975.03;;;2.51;81.95
62725;BME280;49026;52.600;4.694;2023-01-24T04:53:53;103977.63;;;2.51;82.33
62725;BME280;49026;52.600;4.694;2023-01-24T04:56:18;103976.81;;;2.52;82.70
62725;BME280;49026;52.600;4.694;2023-01-24T04:58:44;103978.56;;;2.53;83.56
62725;BME280;49026;52.600;4.694;2023-01-24T05:01:10;103979.41;;;2.52;83.61
62725;BME280;49026;52.600;4.694;2023-01-24T05:03:38;103976.69;;;2.49;82.28
62725;BME280;49026;52.600;4.694;2023-01-24T05:06:03;103982.81;;;2.51;82.76
62725;BME280;49026;52.600;4.694;2023-01-24T05:08:28;103990.59;;;2.51;84.01
62725;BME280;49026;52.600;4.694;2023-01-24T05:10:54;103988.88;;;2.52;83.93
62725;BME280;49026;52.600;4.694;2023-01-24T05:13:19;103983.69;;;2.52;84.83
62725;BME280;49026;52.600;4.694;2023-01-24T05:15:49;103984.66;;;2.54;84.46
62725;BME280;49026;52.600;4.694;2023-01-24T05:18:14;103977.84;;;2.56;84.97
62725;BME280;49026;52.600;4.694;2023-01-24T05:20:40;103979.53;;;2.55;84.95
62725;BME280;49026;52.600;4.694;2023-01-24T05:23:07;103988.28;;;2.57;84.85
62725;BME280;49026;52.600;4.694;2023-01-24T05:25:33;103984.78;;;2.57;85.01
62725;BME280;49026;52.600;4.694;2023-01-24T05:27:58;103981.31;;;2.56;85.83
62725;BME280;49026;52.600;4.694;2023-01-24T05:30:23;103986.50;;;2.56;85.36
62725;BME280;49026;52.600;4.694;2023-01-24T05:32:49;103986.22;;;2.50;84.48
62725;BME280;49026;52.600;4.694;2023-01-24T05:35:14;103979.06;;;2.45;82.46
62725;BME280;49026;52.600;4.694;2023-01-24T05:37:42;103982.41;;;2.42;82.51
62725;BME280;49026;52.600;4.694;2023-01-24T05:40:08;103982.41;;;2.42;82.74
62725;BME280;49026;52.600;4.694;2023-01-24T05:42:33;103981.53;;;2.41;83.63
62725;BME280;49026;52.600;4.694;2023-01-24T05:44:59;103978.72;;;2.37;82.42
62725;BME280;49026;52.600;4.694;2023-01-24T05:47:24;103977.97;;;2.39;82.78
62725;BME280;49026;52.600;4.694;2023-01-24T05:49:50;103987.41;;;2.37;82.45
62725;BME280;49026;52.600;4.694;2023-01-24T05:52:16;103978.72;;;2.37;83.02
62725;BME280;49026;52.600;4.694;2023-01-24T05:54:48;103982.16;;;2.36;83.17
62725;BME280;49026;52.600;4.694;2023-01-24T05:57:14;103984.81;;;2.37;82.64
62725;BME280;49026;52.600;4.694;2023-01-24T05:59:40;103979.50;;;2.34;82.34
62725;BME280;49026;52.600;4.694;2023-01-24T06:02:07;103983.78;;;2.34;82.10
62725;BME280;49026;52.600;4.694;2023-01-24T06:04:35;103980.22;;;2.32;82.84
62725;BME280;49026;52.600;4.694;2023-01-24T06:07:00;103982.59;;;2.27;82.71
62725;BME280;49026;52.600;4.694;2023-01-24T06:09:25;103985.16;;;2.26;82.52
62725;BME280;49026;52.600;4.694;2023-01-24T06:11:51;103979.84;;;2.22;83.08
62725;BME280;49026;52.600;4.694;2023-01-24T06:14:16;103979.63;;;2.18;82.28
62725;BME280;49026;52.600;4.694;2023-01-24T06:16:44;103981.44;;;2.20;83.57
62725;BME280;49026;52.600;4.694;2023-01-24T06:19:13;103991.00;;;2.21;83.17
62725;BME280;49026;52.600;4.694;2023-01-24T06:21:50;104003.84;;;2.18;83.06
62725;BME280;49026;52.600;4.694;2023-01-24T06:24:25;104001.09;;;2.15;82.91
62725;BME280;49026;52.600;4.694;2023-01-24T06:26:52;104000.16;;;2.13;82.55
62725;BME280;49026;52.600;4.694;2023-01-24T06:29:18;104005.19;;;2.10;82.57
62725;BME280;49026;52.600;4.694;2023-01-24T06:38:01;104007.00;;;2.11;83.82
62725;BME280;49026;52.600;4.694;2023-01-24T06:40:27;104008.00;;;2.15;83.67
62725;BME280;49026;52.600;4.694;2023-01-24T06:42:56;104010.59;;;2.15;83.34
62725;BME280;49026;52.600;4.694;2023-01-24T06:45:21;103997.63;;;2.15;83.56
62725;BME280;49026;52.600;4.694;2023-01-24T06:47:47;104001.03;;;2.14;82.89
62725;BME280;49026;52.600;4.694;2023-01-24T06:50:22;104004.41;;;2.11;82.79
62725;BME280;49026;52.600;4.694;2023-01-24T06:52:48;104001.66;;;2.08;83.08
62725;BME280;49026;52.600;4.694;2023-01-24T06:55:14;104002.75;;;2.13;82.95
62725;BME280;49026;52.600;4.694;2023-01-24T06:57:39;104006.22;;;2.14;83.33
62725;BME280;49026;52.600;4.694;2023-01-24T07:00:06;104010.59;;;2.15;84.36
62725;BME280;49026;52.600;4.694;2023-01-24T07:02:31;104004.63;;;2.16;83.95
62725;BME280;49026;52.600;4.694;2023-01-24T07:04:57;104008.78;;;2.12;83.65
62725;BME280;49026;52.600;4.694;2023-01-24T07:07:22;104015.16;;;2.01;81.97
62725;BME280;49026;52.600;4.694;2023-01-24T07:09:47;104029.09;;;2.03;83.28
62725;BME280;49026;52.600;4.694;2023-01-24T07:12:12;104026.66;;;2.06;82.80
62725;BME280;49026;52.600;4.694;2023-01-24T07:14:40;104029.25;;;2.06;83.62
62725;BME280;49026;52.600;4.694;2023-01-24T07:17:06;104035.38;;;2.08;83.90
62725;BME280;49026;52.600;4.694;2023-01-24T07:19:32;104035.31;;;2.07;83.46
62725;BME280;49026;52.600;4.694;2023-01-24T07:21:58;104035.22;;;2.05;83.57
62725;BME280;49026;52.600;4.694;2023-01-24T07:24:27;104038.66;;;2.04;83.19
62725;BME280;49026;52.600;4.694;2023-01-24T07:26:55;104039.63;;;2.06;83.92
62725;BME280;49026;52.600;4.694;2023-01-24T07:29:23;104042.44;;;2.11;84.19
62725;BME280;49026;52.600;4.694;2023-01-24T07:31:52;104042.53;;;2.14;84.24
62725;BME280;49026;52.600;4.694;2023-01-24T07:34:20;104047.81;;;2.15;83.72
62725;BME280;49026;52.600;4.694;2023-01-24T07:36:46;104034.84;;;2.15;84.20
62725;BME280;49026;52.600;4.694;2023-01-24T07:39:12;104041.81;;;2.16;84.62
62725;BME280;49026;52.600;4.694;2023-01-24T07:41:37;104041.00;;;2.17;85.13
62725;BME280;49026;52.600;4.694;2023-01-24T07:44:06;104041.97;;;2.19;85.31
62725;BME280;49026;52.600;4.694;2023-01-24T07:46:35;104048.91;;;2.20;84.72
62725;BME280;49026;52.600;4.694;2023-01-24T07:49:01;104055.09;;;2.22;85.44
62725;BME280;49026;52.600;4.694;2023-01-24T07:51:27;104054.09;;;2.20;84.66
62725;BME280;49026;52.600;4.694;2023-01-24T07:53:53;104053.00;;;2.15;84.11
62725;BME280;49026;52.600;4.694;2023-01-24T07:56:20;104059.81;;;2.13;84.72
62725;BME280;49026;52.600;4.694;2023-01-24T07:58:48;104055.47;;;2.12;84.93
62725;BME280;49026;52.600;4.694;2023-01-24T08:01:17;104055.31;;;2.09;84.72
62725;BME280;49026;52.600;4.694;2023-01-24T08:03:43;104058.72;;;2.08;84.10
62725;BME280;49026;52.600;4.694;2023-01-24T08:06:12;104059.50;;;2.06;84.12
62725;BME280;49026;52.600;4.694;2023-01-24T08:08:37;104062.09;;;2.06;83.92
62725;BME280;49026;52.600;4.694;2023-01-24T08:11:03;104062.13;;;2.07;84.46
62725;BME280;49026;52.600;4.694;2023-01-24T08:13:28;104063.19;;;2.11;84.67
62725;BME280;49026;52.600;4.694;2023-01-24T08:15:53;104064.22;;;2.14;84.98
62725;BME280;49026;52.600;4.694;2023-01-24T08:18:19;104072.00;;;2.14;84.58
62725;BME280;49026;52.600;4.694;2023-01-24T08:20:44;104071.16;;;2.15;84.84
62725;BME280;49026;52.600;4.694;2023-01-24T08:23:14;104082.22;;;2.11;84.21
62725;BME280;49026;52.600;4.694;2023-01-24T08:25:40;104078.75;;;2.11;84.88
62725;BME280;49026;52.600;4.694;2023-01-24T08:28:05;104083.03;;;2.10;84.14
62725;BME280;49026;52.600;4.694;2023-01-24T08:30:30;104081.13;;;2.06;83.97
62725;BME280;49026;52.600;4.694;2023-01-24T08:33:05;104088.75;;;2.03;83.83
62725;BME280;49026;52.600;4.694;2023-01-24T08:35:31;104086.16;;;2.03;84.06
62725;BME280;49026;52.600;4.694;2023-01-24T08:37:57;104087.13;;;2.05;84.97
62725;BME280;49026;52.600;4.694;2023-01-24T08:40:23;104098.59;;;2.10;84.93
62725;BME280;49026;52.600;4.694;2023-01-24T08:42:48;104092.69;;;2.13;85.02
62725;BME280;49026;52.600;4.694;2023-01-24T08:45:14;104085.69;;;2.12;84.32
62725;BME280;49026;52.600;4.694;2023-01-24T08:47:39;104097.03;;;2.14;84.29
62725;BME280;49026;52.600;4.694;2023-01-24T08:50:05;104094.44;;;2.14;84.80
62725;BME280;49026;52.600;4.694;2023-01-24T08:52:35;104095.34;;;2.14;84.40
62725;BME280;49026;52.600;4.694;2023-01-24T08:55:00;104092.53;;;2.10;84.47
62725;BME280;49026;52.600;4.694;2023-01-24T08:57:26;104095.28;;;2.13;84.93
62725;BME280;49026;52.600;4.694;2023-01-24T08:59:51;104100.59;;;2.16;85.46
62725;BME280;49026;52.600;4.694;2023-01-24T09:02:17;104104.38;;;2.22;85.31
62725;BME280;49026;52.600;4.694;2023-01-24T09:04:42;104103.69;;;2.27;85.70
62725;BME280;49026;52.600;4.694;2023-01-24T09:07:12;104107.16;;;2.27;84.68
62725;BME280;49026;52.600;4.694;2023-01-24T09:09:42;104110.66;;;2.28;85.34
62725;BME280;49026;52.600;4.694;2023-01-24T09:12:07;104111.47;;;2.27;84.84
62725;BME280;49026;52.600;4.694;2023-01-24T09:14:35;104116.53;;;2.23;84.72
62725;BME280;49026;52.600;4.694;2023-01-24T09:17:00;104118.09;;;2.20;84.73
62725;BME280;49026;52.600;4.694;2023-01-24T09:19:25;104119.03;;;2.22;85.56
62725;BME280;49026;52.600;4.694;2023-01-24T09:21:52;104107.94;;;2.25;84.79
62725;BME280;49026;52.600;4.694;2023-01-24T09:24:20;104115.03;;;2.29;85.27
62725;BME280;49026;52.600;4.694;2023-01-24T09:26:45;104109.72;;;2.26;84.80
62725;BME280;49026;52.600;4.694;2023-01-24T09:29:11;104119.94;;;2.22;83.85
62725;BME280;49026;52.600;4.694;2023-01-24T09:31:36;104127.59;;;2.19;83.61
62725;BME280;49026;52.600;4.694;2023-01-24T09:34:02;104130.19;;;2.19;84.66
62725;BME280;49026;52.600;4.694;2023-01-24T09:36:29;104123.19;;;2.18;83.83
62725;BME280;49026;52.600;4.694;2023-01-24T09:38:56;104129.06;;;2.14;84.20
62725;BME280;49026;52.600;4.694;2023-01-24T09:44:39;104125.56;;;2.14;83.68
62725;BME280;49026;52.600;4.694;2023-01-24T09:47:26;104125.38;;;2.09;83.88
62725;BME280;49026;52.600;4.694;2023-01-24T09:49:59;104126.03;;;2.05;83.36
62725;BME280;49026;52.600;4.694;2023-01-24T09:52:35;104122.63;;;2.06;83.47
62725;BME280;49026;52.600;4.694;2023-01-24T09:55:22;104122.63;;;2.06;83.24
62725;BME280;49026;52.600;4.694;2023-01-24T09:57:56;104122.78;;;2.09;83.54
62725;BME280;49026;52.600;4.694;2023-01-24T10:00:28;104116.09;;;2.14;83.77
62725;BME280;49026;52.600;4.694;2023-01-24T10:02:55;104115.56;;;2.21;83.87
62725;BME280;49026;52.600;4.694;2023-01-24T10:05:25;104117.28;;;2.21;83.95
62725;BME280;49026;52.600;4.694;2023-01-24T10:21:29;104118.28;;;2.43;83.38
62725;BME280;49026;52.600;4.694;2023-01-24T10:24:02;104115.88;;;2.47;84.13
62725;BME280;49026;52.600;4.694;2023-01-24T10:26:48;104113.66;;;2.55;84.53
62725;BME280;49026;52.600;4.694;2023-01-24T10:29:36;104106.56;;;2.51;83.48
62725;BME280;49026;52.600;4.694;2023-01-24T10:32:09;104116.88;;;2.49;82.33
62725;BME280;49026;52.600;4.694;2023-01-24T10:34:44;104104.06;;;2.54;83.22
62725;BME280;49026;52.600;4.694;2023-01-24T10:39:35;104108.09;;;2.47;82.25
62725;BME280;49026;52.600;4.694;2023-01-24T10:42:01;104095.81;;;2.43;83.37
62725;BME280;49026;52.600;4.694;2023-01-24T10:44:36;104110.13;;;2.35;82.47
62725;BME280;49026;52.600;4.694;2023-01-24T10:49:59;104107.63;;;2.18;81.84
62725;BME280;49026;52.600;4.694;2023-01-24T10:52:27;104110.53;;;2.25;83.46
62725;BME280;49026;52.600;4.694;2023-01-24T10:57:29;104108.00;;;2.26;82.91
62725;BME280;49026;52.600;4.694;2023-01-24T11:00:02;104099.59;;;2.32;83.70
62725;BME280;49026;52.600;4.694;2023-01-24T11:02:32;104106.81;;;2.37;82.77
62725;BME280;49026;52.600;4.694;2023-01-24T11:05:06;104106.91;;;2.40;83.03
62725;BME280;49026;52.600;4.694;2023-01-24T11:07:37;104107.13;;;2.45;82.43
62725;BME280;49026;52.600;4.694;2023-01-24T11:12:47;104095.00;;;2.44;82.35
62725;BME280;49026;52.600;4.694;2023-01-24T11:15:20;104095.31;;;2.52;82.96
62725;BME280;49026;52.600;4.694;2023-01-24T11:17:52;104088.84;;;2.62;82.54
62725;BME280;49026;52.600;4.694;2023-01-24T11:20:28;104093.09;;;2.59;82.60
62725;BME280;49026;52.600;4.694;2023-01-24T11:25:28;104089.13;;;2.48;81.77
62725;BME280;49026;52.600;4.694;2023-01-24T11:27:53;104077.78;;;2.46;81.11
62725;BME280;49026;52.600;4.694;2023-01-24T11:30:20;104080.22;;;2.43;81.52
62725;BME280;49026;52.600;4.694;2023-01-24T11:35:44;104063.13;;;2.29;81.16
62725;BME280;49026;52.600;4.694;2023-01-24T11:38:29;104069.09;;;2.26;80.91
62725;BME280;49026;52.600;4.694;2023-01-24T11:41:09;104074.28;;;2.26;82.67
62725;BME280;49026;52.600;4.694;2023-01-24T11:54:43;104057.06;;;2.28;83.00
62725;BME280;49026;52.600;4.694;2023-01-24T12:06:08;104050.84;;;2.25;82.60
62725;BME280;49026;52.600;4.694;2023-01-24T12:14:35;104026.19;;;2.34;82.77
62725;BME280;49026;52.600;4.694;2023-01-24T12:17:41;104014.38;;;2.41;83.74
62725;BME280;49026;52.600;4.694;2023-01-24T12:23:11;104023.34;;;2.48;82.11
62725;BME280;49026;52.600;4.694;2023-01-24T12:25:46;104020.59;;;2.45;83.27
62725;BME280;49026;52.600;4.694;2023-01-24T12:28:21;104018.50;;;2.36;81.87
62725;BME280;49026;52.600;4.694;2023-01-24T12:30:53;104019.00;;;2.29;82.16
62725;BME280;49026;52.600;4.694;2023-01-24T12:36:00;104004.41;;;2.31;82.92
62725;BME280;49026;52.600;4.694;2023-01-24T12:38:35;104000.91;;;2.30;83.46
62725;BME280;49026;52.600;4.694;2023-01-24T12:55:16;103978.91;;;2.22;83.17
62725;BME280;49026;52.600;4.694;2023-01-24T12:57:50;103994.72;;;2.27;83.79
62725;BME280;49026;52.600;4.694;2023-01-24T13:00:23;103992.09;;;2.27;82.54
62725;BME280;49026;52.600;4.694;2023-01-24T13:05:37;103993.00;;;2.27;83.38
62725;BME280;49026;52.600;4.694;2023-01-24T13:08:31;103994.56;;;2.23;82.32
62725;BME280;49026;52.600;4.694;2023-01-24T13:13:31;103989.94;;;2.16;82.39
62725;BME280;49026;52.600;4.694;2023-01-24T13:16:06;103981.78;;;2.09;82.90
62725;BME280;49026;52.600;4.694;2023-01-24T13:18:55;103976.47;;;2.06;82.83
62725;BME280;49026;52.600;4.694;2023-01-24T13:21:49;103980.75;;;2.05;83.73
62725;BME280;49026;52.600;4.694;2023-01-24T13:32:26;103968.63;;;2.04;83.22
62725;BME280;49026;52.600;4.694;2023-01-24T13:34:56;103970.22;;;2.02;83.74
62725;BME280;49026;52.600;4.694;2023-01-24T13:37:31;103975.34;;;2.00;83.87
62725;BME280;49026;52.600;4.694;2023-01-24T13:40:18;103967.84;;;2.07;84.84
62725;BME280;49026;52.600;4.694;2023-01-24T13:42:45;103970.53;;;2.08;83.75
62725;BME280;49026;52.600;4.694;2023-01-24T13:47:56;103967.28;;;2.12;84.20
62725;BME280;49026;52.600;4.694;2023-01-24T13:50:23;103971.91;;;2.19;84.20
62725;BME280;49026;52.600;4.694;2023-01-24T13:52:53;103959.41;;;2.11;83.35
62725;BME280;49026;52.600;4.694;2023-01-24T13:57:46;103961.66;;;2.03;83.32
62725;BME280;49026;52.600;4.694;2023-01-24T14:10:50;103947.81;;;2.02;84.72
62725;BME280;49026;52.600;4.694;2023-01-24T14:27:30;103953.41;;;1.92;85.01
62725;BME280;49026;52.600;4.694;2023-01-24T14:30:09;103950.72;;;1.91;85.17
62725;BME280;49026;52.600;4.694;2023-01-24T14:35:19;103958.75;;;1.97;84.77
62725;BME280;49026;52.600;4.694;2023-01-24T14:37:51;103956.03;;;1.94;84.69
62725;BME280;49026;52.600;4.694;2023-01-24T14:40:21;103960.13;;;1.89;84.77
62725;BME280;49026;52.600;4.694;2023-01-24T14:42:48;103951.16;;;1.82;84.96
62725;BME280;49026;52.600;4.694;2023-01-24T14:45:17;103961.47;;;1.80;84.68
62725;BME280;49026;52.600;4.694;2023-01-24T14:47:46;103965.63;;;1.77;84.80
62725;BME280;49026;52.600;4.694;2023-01-24T14:50:26;103966.31;;;1.73;85.38
62725;BME280;49026;52.600;4.694;2023-01-24T14:52:54;103972.53;;;1.76;85.33
62725;BME280;49026;52.600;4.694;2023-01-24T14:57:52;103970.09;;;1.79;85.75
62725;BME280;49026;52.600;4.694;2023-01-24T15:00:18;103961.47;;;1.80;85.31
62725;BME280;49026;52.600;4.694;2023-01-24T15:02:53;103965.03;;;1.82;85.24
62725;BME280;49026;52.600;4.694;2023-01-24T15:07:54;103957.03;;;1.78;85.05
62725;BME280;49026;52.600;4.694;2023-01-24T15:10:51;103955.19;;;1.75;85.35
62725;BME280;49026;52.600;4.694;2023-01-24T15:13:26;103962.63;;;1.67;85.04
62725;BME280;49026;52.600;4.694;2023-01-24T15:15:55;103968.28;;;1.59;85.19
62725;BME280;49026;52.600;4.694;2023-01-24T15:18:35;103965.22;;;1.50;85.41
62725;BME280;49026;52.600;4.694;2023-01-24T15:21:01;103964.28;;;1.47;85.85
62725;BME280;49026;52.600;4.694;2023-01-24T15:23:29;103962.63;;;1.50;86.81
62725;BME280;49026;52.600;4.694;2023-01-24T15:25:55;103970.72;;;1.56;86.40
62725;BME280;49026;52.600;4.694;2023-01-24T15:30:56;103965.94;;;1.47;86.49
62725;BME280;49026;52.600;4.694;2023-01-24T15:33:23;103960.84;;;1.48;85.92
62725;BME280;49026;52.600;4.694;2023-01-24T15:35:49;103961.69;;;1.47;85.96